sensor_id;sensor_type;location;lat;lon;timestamp;P1;durP1;ratioP1;P2;durP2;ratioP2
39050;SDS011;24805;55.852;37.644;2023-06-26T00:02:14;15.23;;;9.18;;
39050;SDS011;24805;55.852;37.644;2023-06-26T00:07:17;14.45;;;10.23;;
39050;SDS011;24805;55.852;37.644;2023-06-26T00:12:19;12.23;;;9.85;;
39050;SDS011;24805;55.852;37.644;2023-06-26T00:17:21;13.13;;;9.98;;
39050;SDS011;24805;55.852;37.644;2023-06-26T00:22:23;11.50;;;10.30;;
39050;SDS011;24805;55.852;37.644;2023-06-26T00:27:25;16.40;;;12.70;;
39050;SDS011;24805;55.852;37.644;2023-06-26T00:32:28;16.92;;;14.93;;
39050;SDS011;24805;55.852;37.644;2023-06-26T00:37:30;21.73;;;16.45;;
39050;SDS011;24805;55.852;37.644;2023-06-26T00:42:33;24.75;;;18.38;;
39050;SDS011;24805;55.852;37.644;2023-06-26T00:47:35;27.33;;;20.52;;
39050;SDS011;24805;55.852;37.644;2023-06-26T00:52:38;27.02;;;20.77;;
39050;SDS011;24805;55.852;37.644;2023-06-26T00:57:40;30.42;;;22.75;;
39050;SDS011;24805;55.852;37.644;2023-06-26T01:02:44;34.20;;;23.70;;
39050;SDS011;24805;55.852;37.644;2023-06-26T01:07:48;33.63;;;23.73;;
39050;SDS011;24805;55.852;37.644;2023-06-26T01:12:53;30.30;;;23.55;;
39050;SDS011;24805;55.852;37.644;2023-06-26T01:17:57;34.15;;;24.05;;
39050;SDS011;24805;55.852;37.644;2023-06-26T01:23:07;34.80;;;24.02;;
39050;SDS011;24805;55.852;37.644;2023-06-26T01:28:14;35.92;;;24.67;;
39050;SDS011;24805;55.852;37.644;2023-06-26T01:33:18;32.17;;;21.55;;
39050;SDS011;24805;55.852;37.644;2023-06-26T01:38:20;29.00;;;20.42;;
39050;SDS011;24805;55.852;37.644;2023-06-26T01:48:34;27.23;;;20.13;;
39050;SDS011;24805;55.852;37.644;2023-06-26T01:53:46;26.42;;;19.17;;
39050;SDS011;24805;55.852;37.644;2023-06-26T01:58:53;26.52;;;20.75;;
39050;SDS011;24805;55.852;37.644;2023-06-26T02:03:57;27.95;;;19.90;;
39050;SDS011;24805;55.852;37.644;2023-06-26T02:08:59;24.13;;;19.67;;
39050;SDS011;24805;55.852;37.644;2023-06-26T02:14:04;21.77;;;19.27;;
39050;SDS011;24805;55.852;37.644;2023-06-26T02:19:06;27.08;;;17.88;;
39050;SDS011;24805;55.852;37.644;2023-06-26T02:24:29;22.98;;;18.10;;
39050;SDS011;24805;55.852;37.644;2023-06-26T02:29:32;22.33;;;16.98;;
39050;SDS011;24805;55.852;37.644;2023-06-26T02:34:34;18.88;;;16.52;;
39050;SDS011;24805;55.852;37.644;2023-06-26T02:39:37;19.92;;;16.40;;
39050;SDS011;24805;55.852;37.644;2023-06-26T02:44:40;22.27;;;16.25;;
39050;SDS011;24805;55.852;37.644;2023-06-26T02:49:43;18.70;;;15.10;;
39050;SDS011;24805;55.852;37.644;2023-06-26T02:54:45;19.95;;;15.35;;
39050;SDS011;24805;55.852;37.644;2023-06-26T02:59:48;18.67;;;14.68;;
39050;SDS011;24805;55.852;37.644;2023-06-26T03:04:50;19.98;;;14.57;;
39050;SDS011;24805;55.852;37.644;2023-06-26T03:09:54;20.67;;;15.43;;
39050;SDS011;24805;55.852;37.644;2023-06-26T03:14:56;20.17;;;15.43;;
39050;SDS011;24805;55.852;37.644;2023-06-26T03:19:59;19.92;;;14.50;;
39050;SDS011;24805;55.852;37.644;2023-06-26T03:25:13;18.40;;;15.07;;
39050;SDS011;24805;55.852;37.644;2023-06-26T03:30:16;18.58;;;14.95;;
39050;SDS011;24805;55.852;37.644;2023-06-26T03:35:20;17.85;;;14.30;;
39050;SDS011;24805;55.852;37.644;2023-06-26T03:40:22;19.27;;;13.70;;
39050;SDS011;24805;55.852;37.644;2023-06-26T03:45:25;17.92;;;14.20;;
39050;SDS011;24805;55.852;37.644;2023-06-26T03:50:29;17.00;;;13.20;;
39050;SDS011;24805;55.852;37.644;2023-06-26T03:55:31;17.00;;;13.50;;
39050;SDS011;24805;55.852;37.644;2023-06-26T04:00:33;14.68;;;13.02;;
39050;SDS011;24805;55.852;37.644;2023-06-26T04:05:36;16.92;;;12.98;;
39050;SDS011;24805;55.852;37.644;2023-06-26T04:10:38;15.18;;;13.35;;
39050;SDS011;24805;55.852;37.644;2023-06-26T04:15:40;16.42;;;13.07;;
39050;SDS011;24805;55.852;37.644;2023-06-26T04:26:09;18.08;;;12.45;;
39050;SDS011;24805;55.852;37.644;2023-06-26T04:31:15;15.80;;;11.15;;
39050;SDS011;24805;55.852;37.644;2023-06-26T04:36:17;18.05;;;10.82;;
39050;SDS011;24805;55.852;37.644;2023-06-26T04:41:19;16.92;;;11.50;;
39050;SDS011;24805;55.852;37.644;2023-06-26T04:46:22;16.15;;;10.65;;
39050;SDS011;24805;55.852;37.644;2023-06-26T04:51:24;11.50;;;9.73;;
39050;SDS011;24805;55.852;37.644;2023-06-26T04:56:28;11.35;;;9.10;;
39050;SDS011;24805;55.852;37.644;2023-06-26T05:01:32;9.65;;;8.63;;
39050;SDS011;24805;55.852;37.644;2023-06-26T05:06:34;11.38;;;8.70;;
39050;SDS011;24805;55.852;37.644;2023-06-26T05:11:37;10.30;;;7.25;;
39050;SDS011;24805;55.852;37.644;2023-06-26T05:16:39;8.15;;;6.93;;
39050;SDS011;24805;55.852;37.644;2023-06-26T05:21:41;7.40;;;6.60;;
39050;SDS011;24805;55.852;37.644;2023-06-26T05:26:43;9.27;;;6.45;;
39050;SDS011;24805;55.852;37.644;2023-06-26T05:31:46;9.45;;;5.35;;
39050;SDS011;24805;55.852;37.644;2023-06-26T05:36:51;7.57;;;5.78;;
39050;SDS011;24805;55.852;37.644;2023-06-26T05:41:53;8.60;;;5.78;;
39050;SDS011;24805;55.852;37.644;2023-06-26T05:46:56;6.90;;;5.20;;
39050;SDS011;24805;55.852;37.644;2023-06-26T05:51:58;5.88;;;4.57;;
39050;SDS011;24805;55.852;37.644;2023-06-26T05:57:00;5.25;;;4.65;;
39050;SDS011;24805;55.852;37.644;2023-06-26T06:02:04;4.32;;;3.72;;
39050;SDS011;24805;55.852;37.644;2023-06-26T06:07:06;4.32;;;3.92;;
39050;SDS011;24805;55.852;37.644;2023-06-26T06:12:09;4.55;;;4.15;;
39050;SDS011;24805;55.852;37.644;2023-06-26T06:17:11;5.00;;;3.65;;
39050;SDS011;24805;55.852;37.644;2023-06-26T06:22:14;3.80;;;3.30;;
39050;SDS011;24805;55.852;37.644;2023-06-26T06:27:16;4.70;;;3.95;;
39050;SDS011;24805;55.852;37.644;2023-06-26T06:32:18;4.00;;;3.70;;
39050;SDS011;24805;55.852;37.644;2023-06-26T06:37:20;4.65;;;3.70;;
39050;SDS011;24805;55.852;37.644;2023-06-26T06:42:23;4.15;;;3.63;;
39050;SDS011;24805;55.852;37.644;2023-06-26T06:47:25;3.88;;;3.13;;
39050;SDS011;24805;55.852;37.644;2023-06-26T06:52:28;6.53;;;3.85;;
39050;SDS011;24805;55.852;37.644;2023-06-26T06:57:30;3.72;;;3.13;;
39050;SDS011;24805;55.852;37.644;2023-06-26T07:02:32;3.50;;;3.20;;
39050;SDS011;24805;55.852;37.644;2023-06-26T07:07:35;5.45;;;3.45;;
39050;SDS011;24805;55.852;37.644;2023-06-26T07:12:38;4.25;;;3.63;;
39050;SDS011;24805;55.852;37.644;2023-06-26T07:17:40;4.35;;;3.50;;
39050;SDS011;24805;55.852;37.644;2023-06-26T07:22:43;3.75;;;3.28;;
39050;SDS011;24805;55.852;37.644;2023-06-26T07:27:46;4.82;;;4.43;;
39050;SDS011;24805;55.852;37.644;2023-06-26T07:32:49;4.20;;;3.80;;
39050;SDS011;24805;55.852;37.644;2023-06-26T07:37:51;4.45;;;3.80;;
39050;SDS011;24805;55.852;37.644;2023-06-26T07:42:53;4.00;;;3.60;;
39050;SDS011;24805;55.852;37.644;2023-06-26T07:47:55;4.28;;;3.53;;
39050;SDS011;24805;55.852;37.644;2023-06-26T07:52:57;5.43;;;4.05;;
39050;SDS011;24805;55.852;37.644;2023-06-26T07:58:00;3.72;;;3.40;;
39050;SDS011;24805;55.852;37.644;2023-06-26T08:03:03;3.60;;;3.30;;
39050;SDS011;24805;55.852;37.644;2023-06-26T08:08:05;4.93;;;4.40;;
39050;SDS011;24805;55.852;37.644;2023-06-26T08:13:08;5.15;;;3.70;;
39050;SDS011;24805;55.852;37.644;2023-06-26T08:18:10;4.30;;;3.00;;
39050;SDS011;24805;55.852;37.644;2023-06-26T08:23:13;4.32;;;3.10;;
39050;SDS011;24805;55.852;37.644;2023-06-26T08:28:15;4.82;;;3.60;;
39050;SDS011;24805;55.852;37.644;2023-06-26T08:33:17;3.30;;;3.00;;
39050;SDS011;24805;55.852;37.644;2023-06-26T08:38:19;5.78;;;3.90;;
39050;SDS011;24805;55.852;37.644;2023-06-26T08:43:23;4.93;;;3.83;;
39050;SDS011;24805;55.852;37.644;2023-06-26T08:48:25;4.40;;;4.00;;
39050;SDS011;24805;55.852;37.644;2023-06-26T08:53:41;7.13;;;3.80;;
39050;SDS011;24805;55.852;37.644;2023-06-26T08:58:50;5.10;;;3.70;;
39050;SDS011;24805;55.852;37.644;2023-06-26T09:03:53;5.20;;;4.20;;
39050;SDS011;24805;55.852;37.644;2023-06-26T09:08:55;4.75;;;3.58;;
39050;SDS011;24805;55.852;37.644;2023-06-26T09:13:58;5.65;;;4.80;;
39050;SDS011;24805;55.852;37.644;2023-06-26T09:19:01;4.95;;;3.90;;
39050;SDS011;24805;55.852;37.644;2023-06-26T09:24:03;4.40;;;3.75;;
39050;SDS011;24805;55.852;37.644;2023-06-26T09:29:07;4.38;;;3.97;;
39050;SDS011;24805;55.852;37.644;2023-06-26T09:34:10;4.38;;;3.97;;
39050;SDS011;24805;55.852;37.644;2023-06-26T09:39:12;4.10;;;3.72;;
39050;SDS011;24805;55.852;37.644;2023-06-26T09:44:16;4.93;;;3.60;;
39050;SDS011;24805;55.852;37.644;2023-06-26T09:49:18;4.30;;;3.53;;
39050;SDS011;24805;55.852;37.644;2023-06-26T09:54:21;5.32;;;3.80;;
39050;SDS011;24805;55.852;37.644;2023-06-26T09:59:23;3.85;;;3.55;;
39050;SDS011;24805;55.852;37.644;2023-06-26T10:04:26;5.18;;;4.03;;
39050;SDS011;24805;55.852;37.644;2023-06-26T10:09:28;5.53;;;3.60;;
39050;SDS011;24805;55.852;37.644;2023-06-26T10:14:35;4.18;;;3.88;;
39050;SDS011;24805;55.852;37.644;2023-06-26T10:19:39;8.25;;;3.80;;
39050;SDS011;24805;55.852;37.644;2023-06-26T10:24:45;4.30;;;3.88;;
39050;SDS011;24805;55.852;37.644;2023-06-26T10:29:53;4.47;;;3.90;;
39050;SDS011;24805;55.852;37.644;2023-06-26T10:35:01;5.63;;;5.03;;
39050;SDS011;24805;55.852;37.644;2023-06-26T10:40:05;5.00;;;3.70;;
39050;SDS011;24805;55.852;37.644;2023-06-26T10:50:23;3.88;;;2.90;;
39050;SDS011;24805;55.852;37.644;2023-06-26T10:55:28;3.58;;;3.28;;
39050;SDS011;24805;55.852;37.644;2023-06-26T11:00:31;3.75;;;3.10;;
39050;SDS011;24805;55.852;37.644;2023-06-26T11:05:34;3.97;;;3.33;;
39050;SDS011;24805;55.852;37.644;2023-06-26T11:10:49;4.65;;;3.25;;
39050;SDS011;24805;55.852;37.644;2023-06-26T11:15:55;3.87;;;3.53;;
39050;SDS011;24805;55.852;37.644;2023-06-26T11:21:17;4.30;;;3.25;;
39050;SDS011;24805;55.852;37.644;2023-06-26T11:26:23;3.53;;;2.60;;
39050;SDS011;24805;55.852;37.644;2023-06-26T11:31:29;8.45;;;5.82;;
39050;SDS011;24805;55.852;37.644;2023-06-26T11:36:35;4.88;;;3.67;;
39050;SDS011;24805;55.852;37.644;2023-06-26T11:41:39;3.90;;;3.58;;
39050;SDS011;24805;55.852;37.644;2023-06-26T11:46:42;8.95;;;3.70;;
39050;SDS011;24805;55.852;37.644;2023-06-26T11:51:44;5.13;;;3.67;;
39050;SDS011;24805;55.852;37.644;2023-06-26T11:56:51;3.53;;;3.22;;
39050;SDS011;24805;55.852;37.644;2023-06-26T12:02:00;3.72;;;3.00;;
39050;SDS011;24805;55.852;37.644;2023-06-26T12:07:07;4.60;;;3.28;;
39050;SDS011;24805;55.852;37.644;2023-06-26T12:12:12;5.15;;;3.40;;
39050;SDS011;24805;55.852;37.644;2023-06-26T12:17:16;6.65;;;3.50;;
39050;SDS011;24805;55.852;37.644;2023-06-26T12:22:18;5.65;;;3.20;;
39050;SDS011;24805;55.852;37.644;2023-06-26T12:27:20;3.90;;;3.13;;
39050;SDS011;24805;55.852;37.644;2023-06-26T12:32:23;3.40;;;3.10;;
39050;SDS011;24805;55.852;37.644;2023-06-26T12:37:28;3.65;;;3.17;;
39050;SDS011;24805;55.852;37.644;2023-06-26T12:42:30;6.40;;;3.08;;
39050;SDS011;24805;55.852;37.644;2023-06-26T12:47:35;8.98;;;2.83;;
39050;SDS011;24805;55.852;37.644;2023-06-26T12:52:40;3.15;;;2.83;;
39050;SDS011;24805;55.852;37.644;2023-06-26T12:57:42;2.97;;;2.67;;
39050;SDS011;24805;55.852;37.644;2023-06-26T13:02:44;3.60;;;2.85;;
39050;SDS011;24805;55.852;37.644;2023-06-26T13:07:47;4.47;;;3.47;;
39050;SDS011;24805;55.852;37.644;2023-06-26T13:12:49;3.40;;;3.10;;
39050;SDS011;24805;55.852;37.644;2023-06-26T13:17:52;4.30;;;3.00;;
39050;SDS011;24805;55.852;37.644;2023-06-26T13:22:54;8.35;;;3.80;;
39050;SDS011;24805;55.852;37.644;2023-06-26T13:27:57;5.28;;;3.55;;
39050;SDS011;24805;55.852;37.644;2023-06-26T13:32:59;4.63;;;3.97;;
39050;SDS011;24805;55.852;37.644;2023-06-26T13:38:01;6.32;;;4.32;;
39050;SDS011;24805;55.852;37.644;2023-06-26T13:43:03;6.85;;;4.60;;
39050;SDS011;24805;55.852;37.644;2023-06-26T13:48:06;4.18;;;3.78;;
39050;SDS011;24805;55.852;37.644;2023-06-26T13:53:08;4.35;;;3.95;;
39050;SDS011;24805;55.852;37.644;2023-06-26T13:58:11;5.03;;;4.07;;
39050;SDS011;24805;55.852;37.644;2023-06-26T14:03:14;5.57;;;3.88;;
39050;SDS011;24805;55.852;37.644;2023-06-26T14:08:17;5.10;;;4.38;;
39050;SDS011;24805;55.852;37.644;2023-06-26T14:13:19;7.60;;;4.28;;
39050;SDS011;24805;55.852;37.644;2023-06-26T14:18:24;9.60;;;4.53;;
39050;SDS011;24805;55.852;37.644;2023-06-26T14:23:26;7.25;;;4.15;;
39050;SDS011;24805;55.852;37.644;2023-06-26T14:28:29;5.38;;;4.03;;
39050;SDS011;24805;55.852;37.644;2023-06-26T14:33:31;7.47;;;4.45;;
39050;SDS011;24805;55.852;37.644;2023-06-26T14:38:33;5.20;;;4.28;;
39050;SDS011;24805;55.852;37.644;2023-06-26T14:43:36;6.05;;;3.85;;
39050;SDS011;24805;55.852;37.644;2023-06-26T14:48:38;7.93;;;4.15;;
39050;SDS011;24805;55.852;37.644;2023-06-26T14:53:40;9.73;;;3.92;;
39050;SDS011;24805;55.852;37.644;2023-06-26T14:58:43;5.38;;;3.60;;
39050;SDS011;24805;55.852;37.644;2023-06-26T15:03:48;5.45;;;3.03;;
39050;SDS011;24805;55.852;37.644;2023-06-26T15:08:51;5.13;;;3.30;;
39050;SDS011;24805;55.852;37.644;2023-06-26T15:13:53;4.18;;;3.42;;
39050;SDS011;24805;55.852;37.644;2023-06-26T15:18:57;5.80;;;3.47;;
39050;SDS011;24805;55.852;37.644;2023-06-26T15:23:59;4.28;;;3.30;;
39050;SDS011;24805;55.852;37.644;2023-06-26T15:29:01;7.47;;;3.50;;
39050;SDS011;24805;55.852;37.644;2023-06-26T15:34:04;7.05;;;3.95;;
39050;SDS011;24805;55.852;37.644;2023-06-26T15:39:06;6.25;;;3.90;;
39050;SDS011;24805;55.852;37.644;2023-06-26T15:44:08;8.02;;;3.50;;
39050;SDS011;24805;55.852;37.644;2023-06-26T15:49:11;13.35;;;3.70;;
39050;SDS011;24805;55.852;37.644;2023-06-26T15:54:13;11.13;;;3.88;;
39050;SDS011;24805;55.852;37.644;2023-06-26T15:59:15;11.60;;;4.00;;
39050;SDS011;24805;55.852;37.644;2023-06-26T16:04:20;6.80;;;4.80;;
39050;SDS011;24805;55.852;37.644;2023-06-26T16:09:23;10.23;;;4.53;;
39050;SDS011;24805;55.852;37.644;2023-06-26T16:14:25;9.07;;;4.45;;
39050;SDS011;24805;55.852;37.644;2023-06-26T16:19:28;9.07;;;4.18;;
39050;SDS011;24805;55.852;37.644;2023-06-26T16:24:30;9.68;;;3.88;;
39050;SDS011;24805;55.852;37.644;2023-06-26T16:29:32;7.82;;;4.20;;
39050;SDS011;24805;55.852;37.644;2023-06-26T16:34:35;6.25;;;4.65;;
39050;SDS011;24805;55.852;37.644;2023-06-26T16:39:37;4.05;;;3.33;;
39050;SDS011;24805;55.852;37.644;2023-06-26T16:44:40;7.03;;;3.63;;
39050;SDS011;24805;55.852;37.644;2023-06-26T16:49:43;6.50;;;3.97;;
39050;SDS011;24805;55.852;37.644;2023-06-26T16:54:45;7.60;;;3.28;;
39050;SDS011;24805;55.852;37.644;2023-06-26T16:59:47;8.20;;;3.47;;
39050;SDS011;24805;55.852;37.644;2023-06-26T17:04:50;5.50;;;3.30;;
39050;SDS011;24805;55.852;37.644;2023-06-26T17:09:52;8.88;;;5.28;;
39050;SDS011;24805;55.852;37.644;2023-06-26T17:14:54;12.50;;;6.20;;
39050;SDS011;24805;55.852;37.644;2023-06-26T17:19:56;5.57;;;3.90;;
39050;SDS011;24805;55.852;37.644;2023-06-26T17:25:00;6.30;;;3.53;;
39050;SDS011;24805;55.852;37.644;2023-06-26T17:30:06;5.30;;;3.53;;
39050;SDS011;24805;55.852;37.644;2023-06-26T17:35:09;4.63;;;3.17;;
39050;SDS011;24805;55.852;37.644;2023-06-26T17:40:11;7.28;;;4.00;;
39050;SDS011;24805;55.852;37.644;2023-06-26T17:45:14;6.00;;;3.70;;
39050;SDS011;24805;55.852;37.644;2023-06-26T17:50:16;7.35;;;3.78;;
39050;SDS011;24805;55.852;37.644;2023-06-26T17:55:18;8.00;;;3.47;;
39050;SDS011;24805;55.852;37.644;2023-06-26T18:00:20;6.80;;;4.13;;
39050;SDS011;24805;55.852;37.644;2023-06-26T18:05:22;6.53;;;4.13;;
39050;SDS011;24805;55.852;37.644;2023-06-26T18:10:25;7.45;;;4.05;;
39050;SDS011;24805;55.852;37.644;2023-06-26T18:15:27;10.55;;;4.95;;
39050;SDS011;24805;55.852;37.644;2023-06-26T18:20:29;7.57;;;5.40;;
39050;SDS011;24805;55.852;37.644;2023-06-26T18:25:33;9.57;;;4.88;;
39050;SDS011;24805;55.852;37.644;2023-06-26T18:30:36;8.25;;;6.32;;
39050;SDS011;24805;55.852;37.644;2023-06-26T18:35:38;12.60;;;9.63;;
39050;SDS011;24805;55.852;37.644;2023-06-26T18:40:42;10.20;;;4.95;;
39050;SDS011;24805;55.852;37.644;2023-06-26T18:45:44;8.25;;;5.00;;
39050;SDS011;24805;55.852;37.644;2023-06-26T18:50:46;8.55;;;5.30;;
39050;SDS011;24805;55.852;37.644;2023-06-26T18:55:49;10.43;;;5.18;;
39050;SDS011;24805;55.852;37.644;2023-06-26T19:00:52;10.65;;;5.15;;
39050;SDS011;24805;55.852;37.644;2023-06-26T19:05:54;9.73;;;5.07;;
39050;SDS011;24805;55.852;37.644;2023-06-26T19:10:56;11.85;;;5.07;;
39050;SDS011;24805;55.852;37.644;2023-06-26T19:15:58;11.80;;;6.53;;
39050;SDS011;24805;55.852;37.644;2023-06-26T19:21:02;8.80;;;5.70;;
39050;SDS011;24805;55.852;37.644;2023-06-26T19:26:04;8.68;;;5.13;;
39050;SDS011;24805;55.852;37.644;2023-06-26T19:31:08;7.68;;;4.65;;
39050;SDS011;24805;55.852;37.644;2023-06-26T19:36:11;8.95;;;5.28;;
39050;SDS011;24805;55.852;37.644;2023-06-26T19:41:16;10.18;;;5.65;;
39050;SDS011;24805;55.852;37.644;2023-06-26T19:46:18;13.07;;;5.60;;
39050;SDS011;24805;55.852;37.644;2023-06-26T19:51:20;10.60;;;5.97;;
39050;SDS011;24805;55.852;37.644;2023-06-26T19:56:22;10.50;;;5.82;;
39050;SDS011;24805;55.852;37.644;2023-06-26T20:01:26;9.10;;;6.20;;
39050;SDS011;24805;55.852;37.644;2023-06-26T20:06:29;11.85;;;6.70;;
39050;SDS011;24805;55.852;37.644;2023-06-26T20:11:37;13.40;;;6.07;;
39050;SDS011;24805;55.852;37.644;2023-06-26T20:16:40;9.20;;;5.53;;
39050;SDS011;24805;55.852;37.644;2023-06-26T20:21:42;7.13;;;5.40;;
39050;SDS011;24805;55.852;37.644;2023-06-26T20:26:44;9.70;;;6.05;;
39050;SDS011;24805;55.852;37.644;2023-06-26T20:31:47;10.88;;;7.00;;
39050;SDS011;24805;55.852;37.644;2023-06-26T20:36:49;14.63;;;6.10;;
39050;SDS011;24805;55.852;37.644;2023-06-26T20:41:55;11.75;;;6.38;;
39050;SDS011;24805;55.852;37.644;2023-06-26T20:46:57;15.50;;;6.25;;
39050;SDS011;24805;55.852;37.644;2023-06-26T20:52:01;10.77;;;5.82;;
39050;SDS011;24805;55.852;37.644;2023-06-26T20:57:09;9.63;;;5.80;;
39050;SDS011;24805;55.852;37.644;2023-06-26T21:02:11;9.98;;;5.95;;
39050;SDS011;24805;55.852;37.644;2023-06-26T21:07:13;12.15;;;5.82;;
39050;SDS011;24805;55.852;37.644;2023-06-26T21:12:17;10.70;;;6.10;;
39050;SDS011;24805;55.852;37.644;2023-06-26T21:17:20;12.70;;;6.13;;
39050;SDS011;24805;55.852;37.644;2023-06-26T21:22:22;14.15;;;9.23;;
39050;SDS011;24805;55.852;37.644;2023-06-26T21:27:25;9.10;;;5.88;;
39050;SDS011;24805;55.852;37.644;2023-06-26T21:32:28;10.80;;;6.53;;
39050;SDS011;24805;55.852;37.644;2023-06-26T21:37:31;11.80;;;6.20;;
39050;SDS011;24805;55.852;37.644;2023-06-26T21:42:33;20.70;;;6.97;;
39050;SDS011;24805;55.852;37.644;2023-06-26T21:47:35;7.95;;;5.68;;
39050;SDS011;24805;55.852;37.644;2023-06-26T21:52:37;8.80;;;5.82;;
39050;SDS011;24805;55.852;37.644;2023-06-26T21:57:40;6.40;;;5.18;;
39050;SDS011;24805;55.852;37.644;2023-06-26T22:02:42;13.32;;;6.55;;
39050;SDS011;24805;55.852;37.644;2023-06-26T22:07:44;10.57;;;6.03;;
39050;SDS011;24805;55.852;37.644;2023-06-26T22:12:57;12.38;;;6.15;;
39050;SDS011;24805;55.852;37.644;2023-06-26T22:17:59;12.07;;;6.07;;
39050;SDS011;24805;55.852;37.644;2023-06-26T22:23:01;11.68;;;5.88;;
39050;SDS011;24805;55.852;37.644;2023-06-26T22:28:03;7.43;;;6.13;;
39050;SDS011;24805;55.852;37.644;2023-06-26T22:33:06;9.35;;;6.00;;
39050;SDS011;24805;55.852;37.644;2023-06-26T22:38:08;10.82;;;5.85;;
39050;SDS011;24805;55.852;37.644;2023-06-26T22:43:10;8.68;;;6.57;;
39050;SDS011;24805;55.852;37.644;2023-06-26T22:48:12;10.48;;;6.13;;
39050;SDS011;24805;55.852;37.644;2023-06-26T22:53:14;8.35;;;6.00;;
39050;SDS011;24805;55.852;37.644;2023-06-26T22:58:20;13.85;;;6.38;;
39050;SDS011;24805;55.852;37.644;2023-06-26T23:03:22;10.23;;;6.30;;
39050;SDS011;24805;55.852;37.644;2023-06-26T23:08:25;8.65;;;6.03;;
39050;SDS011;24805;55.852;37.644;2023-06-26T23:13:28;8.45;;;6.05;;
39050;SDS011;24805;55.852;37.644;2023-06-26T23:18:30;13.38;;;6.10;;
39050;SDS011;24805;55.852;37.644;2023-06-26T23:23:33;14.70;;;6.95;;
39050;SDS011;24805;55.852;37.644;2023-06-26T23:28:38;8.95;;;5.78;;
39050;SDS011;24805;55.852;37.644;2023-06-26T23:33:44;8.07;;;5.82;;
39050;SDS011;24805;55.852;37.644;2023-06-26T23:38:49;10.10;;;5.60;;
39050;SDS011;24805;55.852;37.644;2023-06-26T23:43:51;7.28;;;5.40;;
39050;SDS011;24805;55.852;37.644;2023-06-26T23:48:53;7.30;;;5.03;;
39050;SDS011;24805;55.852;37.644;2023-06-26T23:53:56;10.48;;;5.53;;
39050;SDS011;24805;55.852;37.644;2023-06-26T23:58:58;5.57;;;4.95;;
